sensor_id;sensor_type;location;lat;lon;timestamp;P1;durP1;ratioP1;P2;durP2;ratioP2
44304;SDS011;30019;50.576;8.568;2022-10-31T00:01:16;106.75;;;22.52;;
44304;SDS011;30019;50.576;8.568;2022-10-31T00:03:44;82.32;;;21.45;;
44304;SDS011;30019;50.576;8.568;2022-10-31T00:06:09;70.28;;;22.37;;
44304;SDS011;30019;50.576;8.568;2022-10-31T00:08:35;127.00;;;25.00;;
44304;SDS011;30019;50.576;8.568;2022-10-31T00:11:01;247.57;;;27.10;;
44304;SDS011;30019;50.576;8.568;2022-10-31T00:13:26;187.37;;;26.62;;
44304;SDS011;30019;50.576;8.568;2022-10-31T00:15:52;214.65;;;26.40;;
44304;SDS011;30019;50.576;8.568;2022-10-31T00:18:17;135.63;;;23.27;;
44304;SDS011;30019;50.576;8.568;2022-10-31T00:20:43;132.32;;;23.55;;
44304;SDS011;30019;50.576;8.568;2022-10-31T00:23:09;43.75;;;21.83;;
44304;SDS011;30019;50.576;8.568;2022-10-31T00:25:36;43.97;;;21.70;;
44304;SDS011;30019;50.576;8.568;2022-10-31T00:28:03;37.35;;;23.33;;
44304;SDS011;30019;50.576;8.568;2022-10-31T00:30:30;38.53;;;22.23;;
44304;SDS011;30019;50.576;8.568;2022-10-31T00:32:55;44.20;;;25.75;;
44304;SDS011;30019;50.576;8.568;2022-10-31T00:35:21;33.22;;;21.87;;
44304;SDS011;30019;50.576;8.568;2022-10-31T00:37:46;52.88;;;23.70;;
44304;SDS011;30019;50.576;8.568;2022-10-31T00:40:12;37.45;;;22.80;;
44304;SDS011;30019;50.576;8.568;2022-10-31T00:42:38;32.92;;;21.77;;
44304;SDS011;30019;50.576;8.568;2022-10-31T00:45:04;34.45;;;21.33;;
44304;SDS011;30019;50.576;8.568;2022-10-31T00:47:30;36.15;;;22.55;;
44304;SDS011;30019;50.576;8.568;2022-10-31T00:49:56;31.95;;;20.73;;
44304;SDS011;30019;50.576;8.568;2022-10-31T00:52:21;33.53;;;18.95;;
44304;SDS011;30019;50.576;8.568;2022-10-31T00:54:47;28.98;;;19.95;;
44304;SDS011;30019;50.576;8.568;2022-10-31T00:57:12;42.78;;;19.52;;
44304;SDS011;30019;50.576;8.568;2022-10-31T00:59:38;26.55;;;18.17;;
44304;SDS011;30019;50.576;8.568;2022-10-31T01:02:03;24.42;;;18.05;;
44304;SDS011;30019;50.576;8.568;2022-10-31T01:04:29;27.00;;;17.73;;
44304;SDS011;30019;50.576;8.568;2022-10-31T01:06:54;25.95;;;16.65;;
44304;SDS011;30019;50.576;8.568;2022-10-31T01:09:20;22.98;;;16.17;;
44304;SDS011;30019;50.576;8.568;2022-10-31T01:11:45;22.00;;;15.20;;
44304;SDS011;30019;50.576;8.568;2022-10-31T01:14:11;28.25;;;16.12;;
44304;SDS011;30019;50.576;8.568;2022-10-31T01:16:38;25.92;;;15.68;;
44304;SDS011;30019;50.576;8.568;2022-10-31T01:19:03;33.67;;;15.65;;
44304;SDS011;30019;50.576;8.568;2022-10-31T01:21:29;59.75;;;16.10;;
44304;SDS011;30019;50.576;8.568;2022-10-31T01:23:55;44.05;;;14.48;;
44304;SDS011;30019;50.576;8.568;2022-10-31T01:26:30;50.88;;;15.18;;
44304;SDS011;30019;50.576;8.568;2022-10-31T01:28:58;26.50;;;13.18;;
44304;SDS011;30019;50.576;8.568;2022-10-31T01:31:26;26.85;;;13.65;;
44304;SDS011;30019;50.576;8.568;2022-10-31T01:33:54;19.40;;;13.52;;
44304;SDS011;30019;50.576;8.568;2022-10-31T01:36:24;23.23;;;12.25;;
44304;SDS011;30019;50.576;8.568;2022-10-31T01:38:58;17.48;;;12.93;;
44304;SDS011;30019;50.576;8.568;2022-10-31T01:41:26;12.77;;;11.40;;
44304;SDS011;30019;50.576;8.568;2022-10-31T01:44:01;14.65;;;12.20;;
44304;SDS011;30019;50.576;8.568;2022-10-31T01:46:43;23.17;;;12.05;;
44304;SDS011;30019;50.576;8.568;2022-10-31T01:49:14;15.35;;;12.10;;
44304;SDS011;30019;50.576;8.568;2022-10-31T01:51:49;14.27;;;11.75;;
44304;SDS011;30019;50.576;8.568;2022-10-31T01:54:21;15.50;;;12.02;;
44304;SDS011;30019;50.576;8.568;2022-10-31T01:56:52;15.73;;;11.85;;
44304;SDS011;30019;50.576;8.568;2022-10-31T01:59:21;17.90;;;12.45;;
44304;SDS011;30019;50.576;8.568;2022-10-31T02:01:49;13.68;;;11.85;;
44304;SDS011;30019;50.576;8.568;2022-10-31T02:04:16;19.25;;;13.38;;
44304;SDS011;30019;50.576;8.568;2022-10-31T02:06:47;19.23;;;12.85;;
44304;SDS011;30019;50.576;8.568;2022-10-31T02:09:19;17.20;;;11.88;;
44304;SDS011;30019;50.576;8.568;2022-10-31T02:11:52;14.93;;;12.20;;
44304;SDS011;30019;50.576;8.568;2022-10-31T02:14:22;16.95;;;13.13;;
44304;SDS011;30019;50.576;8.568;2022-10-31T02:16:49;15.63;;;11.73;;
44304;SDS011;30019;50.576;8.568;2022-10-31T02:19:16;17.08;;;12.63;;
44304;SDS011;30019;50.576;8.568;2022-10-31T02:21:52;13.85;;;10.57;;
44304;SDS011;30019;50.576;8.568;2022-10-31T02:32:42;14.73;;;10.70;;
44304;SDS011;30019;50.576;8.568;2022-10-31T02:38:12;17.62;;;11.90;;
44304;SDS011;30019;50.576;8.568;2022-10-31T02:43:30;26.52;;;15.45;;
44304;SDS011;30019;50.576;8.568;2022-10-31T02:46:19;24.80;;;14.68;;
44304;SDS011;30019;50.576;8.568;2022-10-31T02:49:01;20.65;;;13.30;;
44304;SDS011;30019;50.576;8.568;2022-10-31T02:51:39;19.70;;;14.85;;
44304;SDS011;30019;50.576;8.568;2022-10-31T02:54:14;23.55;;;12.52;;
44304;SDS011;30019;50.576;8.568;2022-10-31T02:56:48;21.52;;;12.40;;
44304;SDS011;30019;50.576;8.568;2022-10-31T02:59:18;12.52;;;10.77;;
44304;SDS011;30019;50.576;8.568;2022-10-31T03:01:46;12.18;;;10.15;;
44304;SDS011;30019;50.576;8.568;2022-10-31T03:04:27;57.95;;;11.12;;
44304;SDS011;30019;50.576;8.568;2022-10-31T03:07:03;25.95;;;10.65;;
44304;SDS011;30019;50.576;8.568;2022-10-31T03:09:33;38.67;;;11.73;;
44304;SDS011;30019;50.576;8.568;2022-10-31T03:12:12;52.03;;;10.82;;
44304;SDS011;30019;50.576;8.568;2022-10-31T03:14:56;20.12;;;10.32;;
44304;SDS011;30019;50.576;8.568;2022-10-31T03:17:31;10.27;;;9.18;;
44304;SDS011;30019;50.576;8.568;2022-10-31T03:20:01;61.83;;;11.95;;
44304;SDS011;30019;50.576;8.568;2022-10-31T03:22:29;64.80;;;12.95;;
44304;SDS011;30019;50.576;8.568;2022-10-31T03:24:58;39.97;;;12.18;;
44304;SDS011;30019;50.576;8.568;2022-10-31T03:27:26;82.57;;;13.05;;
44304;SDS011;30019;50.576;8.568;2022-10-31T03:29:56;100.93;;;11.63;;
44304;SDS011;30019;50.576;8.568;2022-10-31T03:32:26;50.97;;;11.05;;
44304;SDS011;30019;50.576;8.568;2022-10-31T03:34:59;87.45;;;13.50;;
44304;SDS011;30019;50.576;8.568;2022-10-31T03:37:29;51.75;;;12.48;;
44304;SDS011;30019;50.576;8.568;2022-10-31T03:39:58;81.45;;;13.32;;
44304;SDS011;30019;50.576;8.568;2022-10-31T03:42:25;18.48;;;11.70;;
44304;SDS011;30019;50.576;8.568;2022-10-31T03:44:54;18.67;;;11.85;;
44304;SDS011;30019;50.576;8.568;2022-10-31T03:47:24;31.65;;;12.20;;
44304;SDS011;30019;50.576;8.568;2022-10-31T03:49:50;40.58;;;11.93;;
44304;SDS011;30019;50.576;8.568;2022-10-31T03:55:00;63.17;;;11.93;;
44304;SDS011;30019;50.576;8.568;2022-10-31T04:00:15;87.72;;;13.40;;
44304;SDS011;30019;50.576;8.568;2022-10-31T04:02:46;115.18;;;14.05;;
44304;SDS011;30019;50.576;8.568;2022-10-31T04:05:18;57.42;;;13.45;;
44304;SDS011;30019;50.576;8.568;2022-10-31T04:07:46;69.87;;;12.88;;
44304;SDS011;30019;50.576;8.568;2022-10-31T04:10:14;85.87;;;13.35;;
44304;SDS011;30019;50.576;8.568;2022-10-31T04:12:41;21.12;;;11.43;;
44304;SDS011;30019;50.576;8.568;2022-10-31T04:15:12;24.77;;;12.75;;
44304;SDS011;30019;50.576;8.568;2022-10-31T04:17:39;22.02;;;13.23;;
44304;SDS011;30019;50.576;8.568;2022-10-31T04:20:07;21.92;;;12.88;;
44304;SDS011;30019;50.576;8.568;2022-10-31T04:22:32;17.23;;;11.45;;
44304;SDS011;30019;50.576;8.568;2022-10-31T04:24:58;15.43;;;11.35;;
44304;SDS011;30019;50.576;8.568;2022-10-31T04:27:23;21.80;;;12.40;;
44304;SDS011;30019;50.576;8.568;2022-10-31T04:29:49;19.95;;;13.13;;
44304;SDS011;30019;50.576;8.568;2022-10-31T04:32:15;22.23;;;13.43;;
44304;SDS011;30019;50.576;8.568;2022-10-31T04:34:40;23.30;;;15.10;;
44304;SDS011;30019;50.576;8.568;2022-10-31T04:37:06;31.80;;;17.23;;
44304;SDS011;30019;50.576;8.568;2022-10-31T04:39:31;28.30;;;16.62;;
44304;SDS011;30019;50.576;8.568;2022-10-31T04:41:57;27.85;;;17.08;;
44304;SDS011;30019;50.576;8.568;2022-10-31T04:44:22;30.58;;;16.35;;
44304;SDS011;30019;50.576;8.568;2022-10-31T04:46:48;25.20;;;15.40;;
44304;SDS011;30019;50.576;8.568;2022-10-31T04:49:13;29.15;;;16.90;;
44304;SDS011;30019;50.576;8.568;2022-10-31T04:51:39;29.17;;;16.58;;
44304;SDS011;30019;50.576;8.568;2022-10-31T04:54:04;23.20;;;15.50;;
44304;SDS011;30019;50.576;8.568;2022-10-31T04:56:30;28.73;;;15.60;;
44304;SDS011;30019;50.576;8.568;2022-10-31T04:58:56;21.02;;;13.55;;
44304;SDS011;30019;50.576;8.568;2022-10-31T05:01:21;20.95;;;14.55;;
44304;SDS011;30019;50.576;8.568;2022-10-31T05:03:47;28.52;;;13.80;;
44304;SDS011;30019;50.576;8.568;2022-10-31T05:06:12;23.45;;;14.27;;
44304;SDS011;30019;50.576;8.568;2022-10-31T05:08:38;32.70;;;12.10;;
44304;SDS011;30019;50.576;8.568;2022-10-31T05:11:03;14.20;;;10.88;;
44304;SDS011;30019;50.576;8.568;2022-10-31T05:13:30;16.58;;;11.65;;
44304;SDS011;30019;50.576;8.568;2022-10-31T05:15:56;16.45;;;11.10;;
44304;SDS011;30019;50.576;8.568;2022-10-31T05:18:22;16.62;;;11.90;;
44304;SDS011;30019;50.576;8.568;2022-10-31T05:20:47;27.40;;;13.80;;
44304;SDS011;30019;50.576;8.568;2022-10-31T05:23:13;18.85;;;12.77;;
44304;SDS011;30019;50.576;8.568;2022-10-31T05:25:39;17.33;;;13.00;;
44304;SDS011;30019;50.576;8.568;2022-10-31T05:28:05;22.98;;;12.98;;
44304;SDS011;30019;50.576;8.568;2022-10-31T05:30:31;35.53;;;13.73;;
44304;SDS011;30019;50.576;8.568;2022-10-31T05:32:58;40.67;;;13.57;;
44304;SDS011;30019;50.576;8.568;2022-10-31T05:35:27;37.97;;;14.05;;
44304;SDS011;30019;50.576;8.568;2022-10-31T05:37:54;19.73;;;13.18;;
44304;SDS011;30019;50.576;8.568;2022-10-31T05:40:20;18.70;;;12.02;;
44304;SDS011;30019;50.576;8.568;2022-10-31T05:42:46;20.42;;;12.98;;
44304;SDS011;30019;50.576;8.568;2022-10-31T05:45:13;17.33;;;12.88;;
44304;SDS011;30019;50.576;8.568;2022-10-31T05:47:40;20.70;;;12.35;;
44304;SDS011;30019;50.576;8.568;2022-10-31T05:50:06;21.55;;;12.25;;
44304;SDS011;30019;50.576;8.568;2022-10-31T05:52:32;20.35;;;12.73;;
44304;SDS011;30019;50.576;8.568;2022-10-31T05:54:58;28.62;;;13.00;;
44304;SDS011;30019;50.576;8.568;2022-10-31T05:57:24;42.42;;;13.00;;
44304;SDS011;30019;50.576;8.568;2022-10-31T05:59:49;51.78;;;13.13;;
44304;SDS011;30019;50.576;8.568;2022-10-31T06:02:18;27.20;;;13.15;;
44304;SDS011;30019;50.576;8.568;2022-10-31T06:04:46;59.72;;;14.50;;
44304;SDS011;30019;50.576;8.568;2022-10-31T06:07:12;88.93;;;14.87;;
44304;SDS011;30019;50.576;8.568;2022-10-31T06:09:38;98.10;;;17.90;;
44304;SDS011;30019;50.576;8.568;2022-10-31T06:12:03;59.47;;;14.93;;
44304;SDS011;30019;50.576;8.568;2022-10-31T06:14:29;41.95;;;16.23;;
44304;SDS011;30019;50.576;8.568;2022-10-31T06:16:55;61.35;;;14.30;;
44304;SDS011;30019;50.576;8.568;2022-10-31T06:19:20;50.80;;;14.60;;
44304;SDS011;30019;50.576;8.568;2022-10-31T06:21:46;46.70;;;14.50;;
44304;SDS011;30019;50.576;8.568;2022-10-31T06:24:12;89.07;;;16.33;;
44304;SDS011;30019;50.576;8.568;2022-10-31T06:26:37;68.03;;;16.12;;
44304;SDS011;30019;50.576;8.568;2022-10-31T06:29:03;73.15;;;15.40;;
44304;SDS011;30019;50.576;8.568;2022-10-31T06:31:29;91.12;;;17.02;;
44304;SDS011;30019;50.576;8.568;2022-10-31T06:33:54;70.70;;;16.50;;
44304;SDS011;30019;50.576;8.568;2022-10-31T06:36:20;80.75;;;17.45;;
44304;SDS011;30019;50.576;8.568;2022-10-31T06:38:45;60.65;;;16.00;;
44304;SDS011;30019;50.576;8.568;2022-10-31T06:41:11;55.05;;;14.77;;
44304;SDS011;30019;50.576;8.568;2022-10-31T06:43:36;79.45;;;15.10;;
44304;SDS011;30019;50.576;8.568;2022-10-31T06:46:02;60.28;;;14.87;;
44304;SDS011;30019;50.576;8.568;2022-10-31T06:48:29;76.25;;;15.82;;
44304;SDS011;30019;50.576;8.568;2022-10-31T06:51:01;61.25;;;15.27;;
44304;SDS011;30019;50.576;8.568;2022-10-31T06:53:27;82.62;;;15.20;;
44304;SDS011;30019;50.576;8.568;2022-10-31T06:55:56;154.82;;;15.63;;
44304;SDS011;30019;50.576;8.568;2022-10-31T06:58:22;205.30;;;16.75;;
44304;SDS011;30019;50.576;8.568;2022-10-31T07:00:47;137.95;;;16.45;;
44304;SDS011;30019;50.576;8.568;2022-10-31T07:03:13;176.10;;;16.50;;
44304;SDS011;30019;50.576;8.568;2022-10-31T07:05:40;215.55;;;17.75;;
44304;SDS011;30019;50.576;8.568;2022-10-31T07:08:07;250.43;;;21.08;;
44304;SDS011;30019;50.576;8.568;2022-10-31T07:10:35;139.70;;;19.73;;
44304;SDS011;30019;50.576;8.568;2022-10-31T07:13:03;176.40;;;17.20;;
44304;SDS011;30019;50.576;8.568;2022-10-31T07:15:32;159.73;;;18.35;;
44304;SDS011;30019;50.576;8.568;2022-10-31T07:18:00;285.27;;;18.30;;
44304;SDS011;30019;50.576;8.568;2022-10-31T07:20:26;216.38;;;15.25;;
44304;SDS011;30019;50.576;8.568;2022-10-31T07:22:52;249.10;;;17.55;;
44304;SDS011;30019;50.576;8.568;2022-10-31T07:25:18;170.23;;;14.52;;
44304;SDS011;30019;50.576;8.568;2022-10-31T07:27:43;192.60;;;14.98;;
44304;SDS011;30019;50.576;8.568;2022-10-31T07:30:10;235.52;;;16.45;;
44304;SDS011;30019;50.576;8.568;2022-10-31T07:32:37;231.93;;;16.42;;
44304;SDS011;30019;50.576;8.568;2022-10-31T07:35:07;174.35;;;15.75;;
44304;SDS011;30019;50.576;8.568;2022-10-31T07:37:34;76.10;;;14.55;;
44304;SDS011;30019;50.576;8.568;2022-10-31T07:40:00;73.18;;;13.27;;
44304;SDS011;30019;50.576;8.568;2022-10-31T07:42:26;194.15;;;15.85;;
44304;SDS011;30019;50.576;8.568;2022-10-31T07:44:52;151.85;;;14.93;;
44304;SDS011;30019;50.576;8.568;2022-10-31T07:47:17;205.02;;;15.10;;
44304;SDS011;30019;50.576;8.568;2022-10-31T07:49:43;245.02;;;14.43;;
44304;SDS011;30019;50.576;8.568;2022-10-31T07:52:08;328.05;;;15.23;;
44304;SDS011;30019;50.576;8.568;2022-10-31T07:54:34;237.73;;;16.05;;
44304;SDS011;30019;50.576;8.568;2022-10-31T07:56:59;209.77;;;14.82;;
44304;SDS011;30019;50.576;8.568;2022-10-31T07:59:25;111.85;;;13.50;;
44304;SDS011;30019;50.576;8.568;2022-10-31T08:01:52;261.67;;;14.70;;
44304;SDS011;30019;50.576;8.568;2022-10-31T08:04:18;82.68;;;11.52;;
44304;SDS011;30019;50.576;8.568;2022-10-31T08:06:43;193.62;;;15.05;;
44304;SDS011;30019;50.576;8.568;2022-10-31T08:09:09;385.25;;;18.20;;
44304;SDS011;30019;50.576;8.568;2022-10-31T08:11:34;296.35;;;15.43;;
44304;SDS011;30019;50.576;8.568;2022-10-31T08:14:00;253.12;;;14.55;;
44304;SDS011;30019;50.576;8.568;2022-10-31T08:16:26;176.40;;;13.55;;
44304;SDS011;30019;50.576;8.568;2022-10-31T08:18:51;82.40;;;12.15;;
44304;SDS011;30019;50.576;8.568;2022-10-31T08:21:19;136.32;;;12.50;;
44304;SDS011;30019;50.576;8.568;2022-10-31T08:23:44;150.77;;;12.93;;
44304;SDS011;30019;50.576;8.568;2022-10-31T08:26:10;257.67;;;15.68;;
44304;SDS011;30019;50.576;8.568;2022-10-31T08:28:35;305.52;;;16.23;;
44304;SDS011;30019;50.576;8.568;2022-10-31T08:31:01;198.95;;;13.82;;
44304;SDS011;30019;50.576;8.568;2022-10-31T08:33:26;151.52;;;13.18;;
44304;SDS011;30019;50.576;8.568;2022-10-31T08:35:52;104.95;;;14.20;;
44304;SDS011;30019;50.576;8.568;2022-10-31T08:38:18;197.20;;;14.52;;
44304;SDS011;30019;50.576;8.568;2022-10-31T08:40:43;88.45;;;13.43;;
44304;SDS011;30019;50.576;8.568;2022-10-31T08:43:13;124.22;;;13.05;;
44304;SDS011;30019;50.576;8.568;2022-10-31T08:45:41;215.40;;;14.77;;
44304;SDS011;30019;50.576;8.568;2022-10-31T08:48:11;101.57;;;14.20;;
44304;SDS011;30019;50.576;8.568;2022-10-31T08:50:38;133.65;;;15.23;;
44304;SDS011;30019;50.576;8.568;2022-10-31T08:53:11;78.95;;;13.60;;
44304;SDS011;30019;50.576;8.568;2022-10-31T08:55:39;101.80;;;13.90;;
44304;SDS011;30019;50.576;8.568;2022-10-31T08:58:07;179.87;;;13.25;;
44304;SDS011;30019;50.576;8.568;2022-10-31T09:00:36;110.22;;;11.52;;
44304;SDS011;30019;50.576;8.568;2022-10-31T09:03:03;160.12;;;13.18;;
44304;SDS011;30019;50.576;8.568;2022-10-31T09:05:31;127.10;;;11.88;;
44304;SDS011;30019;50.576;8.568;2022-10-31T09:07:57;157.40;;;12.60;;
44304;SDS011;30019;50.576;8.568;2022-10-31T09:10:24;136.68;;;12.30;;
44304;SDS011;30019;50.576;8.568;2022-10-31T09:12:57;102.55;;;11.93;;
44304;SDS011;30019;50.576;8.568;2022-10-31T09:15:31;135.65;;;11.75;;
44304;SDS011;30019;50.576;8.568;2022-10-31T09:17:58;94.15;;;15.70;;
44304;SDS011;30019;50.576;8.568;2022-10-31T09:20:23;51.58;;;9.68;;
44304;SDS011;30019;50.576;8.568;2022-10-31T09:22:59;220.18;;;10.82;;
44304;SDS011;30019;50.576;8.568;2022-10-31T09:25:27;21.90;;;7.20;;
44304;SDS011;30019;50.576;8.568;2022-10-31T09:27:57;11.32;;;7.65;;
44304;SDS011;30019;50.576;8.568;2022-10-31T09:30:24;18.95;;;8.20;;
44304;SDS011;30019;50.576;8.568;2022-10-31T09:33:25;15.00;;;8.10;;
44304;SDS011;30019;50.576;8.568;2022-10-31T09:35:43;9.77;;;6.30;;
44304;SDS011;30019;50.576;8.568;2022-10-31T09:38:09;22.77;;;6.97;;
44304;SDS011;30019;50.576;8.568;2022-10-31T09:40:45;26.85;;;7.32;;
44304;SDS011;30019;50.576;8.568;2022-10-31T09:51:25;46.78;;;7.87;;
44304;SDS011;30019;50.576;8.568;2022-10-31T09:54:02;10.00;;;7.60;;
44304;SDS011;30019;50.576;8.568;2022-10-31T09:56:33;18.05;;;7.65;;
44304;SDS011;30019;50.576;8.568;2022-10-31T09:59:00;10.82;;;8.15;;
44304;SDS011;30019;50.576;8.568;2022-10-31T10:06:46;12.43;;;7.75;;
44304;SDS011;30019;50.576;8.568;2022-10-31T10:09:20;20.70;;;7.50;;
44304;SDS011;30019;50.576;8.568;2022-10-31T10:12:09;9.35;;;7.80;;
44304;SDS011;30019;50.576;8.568;2022-10-31T10:23:50;13.45;;;9.68;;
44304;SDS011;30019;50.576;8.568;2022-10-31T10:26:21;12.32;;;8.45;;
44304;SDS011;30019;50.576;8.568;2022-10-31T10:32:17;13.82;;;9.25;;
44304;SDS011;30019;50.576;8.568;2022-10-31T10:39:52;16.25;;;9.23;;
44304;SDS011;30019;50.576;8.568;2022-10-31T10:42:23;10.77;;;8.88;;
44304;SDS011;30019;50.576;8.568;2022-10-31T10:45:14;14.63;;;8.98;;
44304;SDS011;30019;50.576;8.568;2022-10-31T10:48:05;14.60;;;8.40;;
44304;SDS011;30019;50.576;8.568;2022-10-31T10:50:34;9.90;;;8.15;;
44304;SDS011;30019;50.576;8.568;2022-10-31T10:58:21;12.13;;;8.45;;
44304;SDS011;30019;50.576;8.568;2022-10-31T11:00:47;12.95;;;8.45;;
44304;SDS011;30019;50.576;8.568;2022-10-31T11:03:14;12.90;;;8.40;;
44304;SDS011;30019;50.576;8.568;2022-10-31T11:05:54;14.80;;;8.55;;
44304;SDS011;30019;50.576;8.568;2022-10-31T11:08:26;16.27;;;8.45;;
44304;SDS011;30019;50.576;8.568;2022-10-31T11:10:56;12.48;;;7.60;;
44304;SDS011;30019;50.576;8.568;2022-10-31T11:13:27;11.32;;;7.85;;
44304;SDS011;30019;50.576;8.568;2022-10-31T11:15:55;17.98;;;8.30;;
44304;SDS011;30019;50.576;8.568;2022-10-31T11:18:31;20.08;;;8.55;;
44304;SDS011;30019;50.576;8.568;2022-10-31T11:21:00;16.67;;;8.10;;
44304;SDS011;30019;50.576;8.568;2022-10-31T11:23:28;14.43;;;8.82;;
44304;SDS011;30019;50.576;8.568;2022-10-31T11:28:25;13.55;;;8.20;;
44304;SDS011;30019;50.576;8.568;2022-10-31T11:30:52;14.10;;;8.57;;
44304;SDS011;30019;50.576;8.568;2022-10-31T11:33:34;16.45;;;9.00;;
44304;SDS011;30019;50.576;8.568;2022-10-31T11:36:21;13.88;;;8.48;;
44304;SDS011;30019;50.576;8.568;2022-10-31T11:38:48;12.65;;;8.02;;
44304;SDS011;30019;50.576;8.568;2022-10-31T11:41:28;13.38;;;8.52;;
44304;SDS011;30019;50.576;8.568;2022-10-31T11:44:20;17.08;;;8.75;;
44304;SDS011;30019;50.576;8.568;2022-10-31T11:46:49;14.52;;;9.00;;
44304;SDS011;30019;50.576;8.568;2022-10-31T11:52:05;12.23;;;7.95;;
44304;SDS011;30019;50.576;8.568;2022-10-31T11:57:31;17.58;;;8.77;;
44304;SDS011;30019;50.576;8.568;2022-10-31T12:00:02;18.12;;;8.98;;
44304;SDS011;30019;50.576;8.568;2022-10-31T12:02:29;16.35;;;8.27;;
44304;SDS011;30019;50.576;8.568;2022-10-31T12:05:08;14.63;;;8.27;;
44304;SDS011;30019;50.576;8.568;2022-10-31T12:07:43;15.88;;;8.32;;
44304;SDS011;30019;50.576;8.568;2022-10-31T12:10:12;14.32;;;8.25;;
44304;SDS011;30019;50.576;8.568;2022-10-31T12:12:51;13.48;;;8.40;;
44304;SDS011;30019;50.576;8.568;2022-10-31T12:15:33;13.15;;;8.40;;
44304;SDS011;30019;50.576;8.568;2022-10-31T12:23:42;14.15;;;8.02;;
44304;SDS011;30019;50.576;8.568;2022-10-31T12:29:17;12.30;;;7.50;;
44304;SDS011;30019;50.576;8.568;2022-10-31T12:32:11;15.25;;;8.35;;
44304;SDS011;30019;50.576;8.568;2022-10-31T12:43:16;16.23;;;8.40;;
44304;SDS011;30019;50.576;8.568;2022-10-31T12:46:07;14.13;;;8.50;;
44304;SDS011;30019;50.576;8.568;2022-10-31T12:48:52;13.23;;;7.68;;
44304;SDS011;30019;50.576;8.568;2022-10-31T12:51:44;23.12;;;8.50;;
44304;SDS011;30019;50.576;8.568;2022-10-31T12:59:53;19.70;;;11.90;;
44304;SDS011;30019;50.576;8.568;2022-10-31T13:02:35;17.70;;;10.13;;
44304;SDS011;30019;50.576;8.568;2022-10-31T13:05:13;15.85;;;8.82;;
44304;SDS011;30019;50.576;8.568;2022-10-31T13:07:49;20.62;;;7.50;;
44304;SDS011;30019;50.576;8.568;2022-10-31T13:10:42;19.15;;;7.78;;
44304;SDS011;30019;50.576;8.568;2022-10-31T13:13:17;12.00;;;7.32;;
44304;SDS011;30019;50.576;8.568;2022-10-31T13:16:00;15.25;;;7.45;;
44304;SDS011;30019;50.576;8.568;2022-10-31T13:18:43;16.62;;;7.85;;
44304;SDS011;30019;50.576;8.568;2022-10-31T13:21:17;13.50;;;7.12;;
44304;SDS011;30019;50.576;8.568;2022-10-31T13:23:47;16.75;;;7.53;;
44304;SDS011;30019;50.576;8.568;2022-10-31T13:26:20;17.50;;;7.37;;
44304;SDS011;30019;50.576;8.568;2022-10-31T13:31:53;17.77;;;8.25;;
44304;SDS011;30019;50.576;8.568;2022-10-31T13:37:02;13.60;;;7.70;;
44304;SDS011;30019;50.576;8.568;2022-10-31T13:42:54;21.95;;;8.15;;
44304;SDS011;30019;50.576;8.568;2022-10-31T13:45:21;22.52;;;8.65;;
44304;SDS011;30019;50.576;8.568;2022-10-31T13:48:17;24.65;;;8.23;;
44304;SDS011;30019;50.576;8.568;2022-10-31T13:50:56;19.70;;;7.78;;
44304;SDS011;30019;50.576;8.568;2022-10-31T13:53:42;15.80;;;7.60;;
44304;SDS011;30019;50.576;8.568;2022-10-31T13:56:13;18.47;;;7.17;;
44304;SDS011;30019;50.576;8.568;2022-10-31T13:58:42;16.30;;;6.85;;
44304;SDS011;30019;50.576;8.568;2022-10-31T14:01:28;18.35;;;7.60;;
44304;SDS011;30019;50.576;8.568;2022-10-31T14:04:16;13.90;;;7.22;;
44304;SDS011;30019;50.576;8.568;2022-10-31T14:12:12;14.05;;;7.03;;
44304;SDS011;30019;50.576;8.568;2022-10-31T14:14:58;12.63;;;6.00;;
44304;SDS011;30019;50.576;8.568;2022-10-31T14:17:44;14.75;;;6.00;;
44304;SDS011;30019;50.576;8.568;2022-10-31T14:22:39;21.95;;;6.62;;
44304;SDS011;30019;50.576;8.568;2022-10-31T14:27:54;13.13;;;5.47;;
44304;SDS011;30019;50.576;8.568;2022-10-31T14:30:22;16.52;;;7.05;;
44304;SDS011;30019;50.576;8.568;2022-10-31T14:32:50;22.40;;;6.57;;
44304;SDS011;30019;50.576;8.568;2022-10-31T14:36:31;14.70;;;6.50;;
44304;SDS011;30019;50.576;8.568;2022-10-31T14:38:50;15.73;;;6.68;;
44304;SDS011;30019;50.576;8.568;2022-10-31T14:41:48;17.35;;;7.15;;
44304;SDS011;30019;50.576;8.568;2022-10-31T14:44:40;18.50;;;6.40;;
44304;SDS011;30019;50.576;8.568;2022-10-31T14:52:25;19.80;;;6.95;;
44304;SDS011;30019;50.576;8.568;2022-10-31T14:54:52;16.15;;;7.40;;
44304;SDS011;30019;50.576;8.568;2022-10-31T14:59:56;17.15;;;6.80;;
44304;SDS011;30019;50.576;8.568;2022-10-31T15:05:40;12.02;;;7.10;;
44304;SDS011;30019;50.576;8.568;2022-10-31T15:11:41;18.73;;;7.05;;
44304;SDS011;30019;50.576;8.568;2022-10-31T15:14:17;18.73;;;8.00;;
44304;SDS011;30019;50.576;8.568;2022-10-31T15:16:50;16.27;;;7.57;;
44304;SDS011;30019;50.576;8.568;2022-10-31T15:19:21;15.45;;;7.50;;
44304;SDS011;30019;50.576;8.568;2022-10-31T15:21:49;16.25;;;6.97;;
44304;SDS011;30019;50.576;8.568;2022-10-31T15:24:16;13.25;;;7.10;;
44304;SDS011;30019;50.576;8.568;2022-10-31T15:26:47;13.25;;;6.55;;
44304;SDS011;30019;50.576;8.568;2022-10-31T15:29:19;17.85;;;8.02;;
44304;SDS011;30019;50.576;8.568;2022-10-31T15:31:57;19.67;;;7.50;;
44304;SDS011;30019;50.576;8.568;2022-10-31T15:37:08;19.33;;;7.57;;
44304;SDS011;30019;50.576;8.568;2022-10-31T15:39:37;16.73;;;7.60;;
44304;SDS011;30019;50.576;8.568;2022-10-31T15:42:03;13.75;;;7.50;;
44304;SDS011;30019;50.576;8.568;2022-10-31T15:44:31;16.77;;;7.55;;
44304;SDS011;30019;50.576;8.568;2022-10-31T15:47:21;10.68;;;6.75;;
44304;SDS011;30019;50.576;8.568;2022-10-31T15:57:46;13.27;;;7.18;;
44304;SDS011;30019;50.576;8.568;2022-10-31T16:00:47;24.15;;;7.70;;
44304;SDS011;30019;50.576;8.568;2022-10-31T16:03:19;19.77;;;8.05;;
44304;SDS011;30019;50.576;8.568;2022-10-31T16:05:50;17.42;;;7.65;;
44304;SDS011;30019;50.576;8.568;2022-10-31T16:10:54;23.33;;;8.38;;
44304;SDS011;30019;50.576;8.568;2022-10-31T16:13:29;20.95;;;9.90;;
44304;SDS011;30019;50.576;8.568;2022-10-31T16:15:58;22.02;;;9.88;;
44304;SDS011;30019;50.576;8.568;2022-10-31T16:18:26;16.75;;;8.95;;
44304;SDS011;30019;50.576;8.568;2022-10-31T16:20:54;13.30;;;8.20;;
44304;SDS011;30019;50.576;8.568;2022-10-31T16:23:21;21.00;;;8.88;;
44304;SDS011;30019;50.576;8.568;2022-10-31T16:25:49;35.42;;;14.05;;
44304;SDS011;30019;50.576;8.568;2022-10-31T16:28:26;25.08;;;10.52;;
44304;SDS011;30019;50.576;8.568;2022-10-31T16:30:53;14.00;;;8.18;;
44304;SDS011;30019;50.576;8.568;2022-10-31T16:33:30;18.75;;;8.88;;
44304;SDS011;30019;50.576;8.568;2022-10-31T16:36:13;19.50;;;9.32;;
44304;SDS011;30019;50.576;8.568;2022-10-31T16:38:52;20.50;;;10.77;;
44304;SDS011;30019;50.576;8.568;2022-10-31T16:41:18;23.92;;;11.12;;
44304;SDS011;30019;50.576;8.568;2022-10-31T16:43:44;25.17;;;11.82;;
44304;SDS011;30019;50.576;8.568;2022-10-31T16:46:14;20.25;;;10.25;;
44304;SDS011;30019;50.576;8.568;2022-10-31T16:48:43;17.58;;;9.70;;
44304;SDS011;30019;50.576;8.568;2022-10-31T16:51:08;23.02;;;10.15;;
44304;SDS011;30019;50.576;8.568;2022-10-31T16:53:34;20.75;;;10.63;;
44304;SDS011;30019;50.576;8.568;2022-10-31T16:56:01;24.25;;;11.05;;